createdAt,value
2018-09-14T05:10:00.406Z,9.63
2018-09-14T05:12:29.505Z,9.70
2018-09-14T05:14:58.269Z,9.30
2018-09-14T05:17:27.188Z,8.83
2018-09-14T05:19:56.021Z,9.90
2018-09-14T05:22:24.849Z,9.10
2018-09-14T05:24:53.665Z,9.47
2018-09-14T05:27:22.540Z,8.77
2018-09-14T05:29:51.398Z,9.60
2018-09-14T05:32:20.244Z,9.17
2018-09-14T05:34:49.056Z,8.80
2018-09-14T05:37:18.032Z,8.93
2018-09-14T05:39:47.116Z,8.13
2018-09-14T05:42:15.916Z,8.80
2018-09-14T05:44:44.884Z,9.10
2018-09-14T05:47:13.747Z,8.83
2018-09-14T05:49:42.631Z,8.27
2018-09-14T05:52:11.450Z,8.60
2018-09-14T05:54:41.690Z,9.10
2018-09-14T05:57:10.820Z,8.37
2018-09-14T05:59:39.986Z,8.43
2018-09-14T06:02:08.958Z,8.53
2018-09-14T06:04:37.812Z,9.10
2018-09-14T06:07:06.933Z,9.70
2018-09-14T06:09:35.868Z,7.93
2018-09-14T06:12:04.693Z,9.23
2018-09-14T06:14:33.854Z,9.10
2018-09-14T06:17:02.741Z,9.57
2018-09-14T06:19:31.811Z,9.80
2018-09-14T06:22:00.650Z,9.80
2018-09-14T06:24:29.671Z,9.07
2018-09-14T06:26:58.643Z,9.23
2018-09-14T06:29:27.723Z,9.77
2018-09-14T06:31:56.651Z,9.23
2018-09-14T06:34:25.183Z,8.70
2018-09-14T06:36:54.012Z,9.00
2018-09-14T06:39:22.960Z,9.37
2018-09-14T06:41:51.863Z,8.57
2018-09-14T06:44:21.265Z,8.50
2018-09-14T06:46:50.250Z,6.33
2018-09-14T06:49:19.175Z,7.80
2018-09-14T06:51:48.139Z,6.73
2018-09-14T06:54:16.931Z,6.57
2018-09-14T06:56:45.723Z,6.53
2018-09-14T06:59:14.718Z,6.37
2018-09-14T07:01:43.618Z,5.50
2018-09-14T07:04:12.512Z,5.70
2018-09-14T07:06:41.456Z,3.97
2018-09-14T07:09:10.442Z,1.90
2018-09-14T07:11:39.531Z,1.77
2018-09-14T07:14:08.616Z,1.90
2018-09-14T07:16:40.547Z,3.77
2018-09-14T07:19:09.583Z,2.30
2018-09-14T07:21:38.570Z,4.00
2018-09-14T07:24:07.428Z,4.90
2018-09-14T07:26:36.321Z,4.07
2018-09-14T07:29:05.828Z,3.23
2018-09-14T07:31:34.956Z,5.70
2018-09-14T07:34:03.991Z,6.50
2018-09-14T07:36:33.164Z,10.30
2018-09-14T07:39:02.304Z,7.13
2018-09-14T07:41:31.264Z,2.87
2018-09-14T07:44:00.089Z,3.93
2018-09-14T07:46:29.116Z,1.80
2018-09-14T07:48:58.077Z,2.10
2018-09-14T07:51:26.968Z,1.97
2018-09-14T07:53:55.901Z,1.80
2018-09-14T07:56:24.991Z,1.90
2018-09-14T07:58:54.248Z,1.70
2018-09-14T08:01:23.513Z,2.10
2018-09-14T08:03:52.350Z,1.90
2018-09-14T08:06:21.142Z,2.00
2018-09-14T08:08:49.989Z,2.63
2018-09-14T08:11:18.946Z,1.90
2018-09-14T08:13:48.573Z,1.90
2018-09-14T08:16:17.719Z,2.20
2018-09-14T08:18:46.713Z,2.00
2018-09-14T08:21:16.369Z,2.23
2018-09-14T08:23:46.271Z,1.70
2018-09-14T08:26:15.115Z,2.40
2018-09-14T08:28:44.765Z,3.00
2018-09-14T08:31:14.135Z,2.13
2018-09-14T08:33:43.078Z,3.43
2018-09-14T08:36:11.894Z,4.97
2018-09-14T08:38:41.172Z,5.53
2018-09-14T08:41:10.337Z,4.93
2018-09-14T08:43:39.962Z,4.37
2018-09-14T08:46:08.747Z,5.80
2018-09-14T08:48:37.650Z,3.93
2018-09-14T08:51:07.457Z,4.03
2018-09-14T08:53:36.340Z,5.13
2018-09-14T08:56:05.833Z,5.53
2018-09-14T08:58:34.674Z,2.37
2018-09-14T09:01:03.832Z,6.00
2018-09-14T09:03:33.075Z,5.83
2018-09-14T09:06:02.223Z,2.20
2018-09-14T09:08:31.095Z,5.97
2018-09-14T09:11:00.025Z,5.03
2018-09-14T09:13:29.210Z,3.83
2018-09-14T09:15:58.739Z,4.83
2018-09-14T09:18:28.236Z,3.97
2018-09-14T09:20:57.023Z,3.70
2018-09-14T09:23:26.219Z,3.63
2018-09-14T09:25:56.039Z,3.50
2018-09-14T09:28:25.177Z,4.53
2018-09-14T09:30:53.962Z,6.20
2018-09-14T09:33:23.163Z,4.40
2018-09-14T09:35:52.539Z,3.03
2018-09-14T09:38:21.444Z,4.27
2018-09-14T09:40:50.353Z,5.30
2018-09-14T09:43:19.901Z,5.70
2018-09-14T09:45:49.403Z,3.63
2018-09-14T09:48:18.259Z,6.50
2018-09-14T09:50:47.660Z,3.50
2018-09-14T09:53:16.775Z,2.23
2018-09-14T09:55:45.681Z,4.77
2018-09-14T09:58:14.626Z,3.07
2018-09-14T10:00:48.903Z,2.10
2018-09-14T10:03:23.689Z,4.07
2018-09-14T10:06:00.752Z,3.80
2018-09-14T10:08:30.172Z,2.70
2018-09-14T10:10:59.115Z,2.37
2018-09-14T10:13:28.400Z,2.90
2018-09-14T10:15:58.007Z,4.03
2018-09-14T10:18:27.660Z,3.47
2018-09-14T10:20:56.662Z,2.93
2018-09-14T10:23:26.236Z,2.73
2018-09-14T10:25:55.585Z,2.40
2018-09-14T10:28:24.525Z,2.73
2018-09-14T10:30:53.796Z,3.10
2018-09-14T10:33:23.285Z,2.57
2018-09-14T10:35:52.991Z,2.83
2018-09-14T10:38:22.497Z,2.97
2018-09-14T10:40:51.417Z,2.93
2018-09-14T10:43:20.378Z,3.37
2018-09-14T10:45:49.511Z,3.17
2018-09-14T10:48:18.377Z,2.33
2018-09-14T10:50:47.231Z,2.77
2018-09-14T10:53:16.132Z,2.10
2018-09-14T10:55:45.645Z,2.67
2018-09-14T10:58:14.688Z,2.20
2018-09-14T11:00:44.639Z,1.90
2018-09-14T11:03:13.827Z,2.50
2018-09-14T11:05:42.892Z,2.53
2018-09-14T11:08:12.029Z,2.20
2018-09-14T11:10:40.832Z,2.80
2018-09-14T11:13:10.032Z,2.87
2018-09-14T11:15:39.331Z,2.63
2018-09-14T11:18:08.161Z,2.50
2018-09-14T11:20:37.664Z,2.40
2018-09-14T11:23:06.883Z,3.23
2018-09-14T11:25:35.907Z,2.30
2018-09-14T11:28:04.862Z,2.10
2018-09-14T11:30:34.567Z,1.77
2018-09-14T11:33:04.031Z,1.70
2018-09-14T11:35:33.075Z,3.03
2018-09-14T11:38:01.980Z,2.53
2018-09-14T11:40:30.755Z,1.90
2018-09-14T11:43:00.163Z,3.00
2018-09-14T11:45:29.264Z,2.20
2018-09-14T11:47:58.531Z,2.00
2018-09-14T11:50:27.300Z,2.30
2018-09-14T11:52:56.762Z,1.80
2018-09-14T11:55:25.691Z,1.70
2018-09-14T11:57:54.861Z,2.03
2018-09-14T12:00:23.567Z,1.80
2018-09-14T12:02:52.372Z,2.13
2018-09-14T12:05:21.063Z,1.50
2018-09-14T12:07:49.804Z,1.80
2018-09-14T12:10:18.722Z,1.53
2018-09-14T12:12:47.495Z,1.63
2018-09-14T12:15:16.733Z,1.70
2018-09-14T12:17:46.146Z,1.53
2018-09-14T12:20:15.323Z,1.50
2018-09-14T12:22:44.428Z,1.40
2018-09-14T12:25:13.428Z,1.60
2018-09-14T12:27:42.295Z,1.67
2018-09-14T12:30:11.261Z,1.57
2018-09-14T12:32:39.982Z,1.30
2018-09-14T12:35:08.892Z,1.67
2018-09-14T12:37:37.621Z,1.80
2018-09-14T12:40:07.375Z,1.50
2018-09-14T12:42:36.906Z,1.63
2018-09-14T12:45:06.219Z,1.80
2018-09-14T12:47:34.931Z,1.30
2018-09-14T12:50:03.927Z,1.50
2018-09-14T12:52:33.031Z,1.33
2018-09-14T12:55:02.183Z,1.90
2018-09-14T12:57:30.911Z,1.37
2018-09-14T13:00:00.070Z,1.53
2018-09-14T13:02:29.166Z,1.23
2018-09-14T13:04:57.864Z,1.43
2018-09-14T13:07:26.626Z,1.50
2018-09-14T13:09:56.107Z,1.60
2018-09-14T13:12:24.807Z,1.70
2018-09-14T13:14:54.456Z,1.60
2018-09-14T13:17:23.372Z,2.00
2018-09-14T13:19:52.196Z,1.80
2018-09-14T13:22:21.085Z,1.60
2018-09-14T13:24:50.272Z,1.47
2018-09-14T13:27:19.515Z,2.07
2018-09-14T13:29:48.548Z,1.53
2018-09-14T13:32:17.799Z,1.80
2018-09-14T13:34:47.025Z,1.43
2018-09-14T13:37:16.104Z,1.80
2018-09-14T13:39:45.219Z,1.43
2018-09-14T13:42:14.031Z,1.80
2018-09-14T13:44:43.154Z,1.70
2018-09-14T13:47:12.367Z,1.57
2018-09-14T13:49:41.511Z,1.43
2018-09-14T13:52:10.777Z,1.33
2018-09-14T13:54:39.754Z,1.50
2018-09-14T13:57:08.739Z,1.40
2018-09-14T13:59:37.958Z,1.37
2018-09-14T14:02:06.648Z,1.50
2018-09-14T14:04:35.764Z,1.60
2018-09-14T14:07:06.215Z,1.50
2018-09-14T14:09:35.022Z,1.53
2018-09-14T14:12:04.004Z,1.10
2018-09-14T14:14:33.568Z,1.67
2018-09-14T14:17:02.752Z,1.50
2018-09-14T14:19:32.143Z,1.10
2018-09-14T14:22:01.314Z,1.63
2018-09-14T14:24:30.403Z,1.17
2018-09-14T14:26:59.515Z,1.20
2018-09-14T14:29:28.565Z,1.30
2018-09-14T14:31:57.947Z,1.20
2018-09-14T14:34:29.372Z,1.17
2018-09-14T14:36:58.061Z,1.00
2018-09-14T14:39:26.861Z,1.00
2018-09-14T14:41:55.688Z,1.10
2018-09-14T14:44:25.406Z,0.90
2018-09-14T14:46:54.507Z,1.20
2018-09-14T14:49:23.261Z,1.10
2018-09-14T14:51:52.594Z,1.50
2018-09-14T14:54:21.278Z,1.23
2018-09-14T14:56:50.681Z,0.83
2018-09-14T14:59:19.143Z,1.03
2018-09-14T15:01:48.825Z,1.07
2018-09-14T15:04:17.658Z,0.97
2018-09-14T15:06:47.575Z,1.00
2018-09-14T15:09:16.275Z,1.00
2018-09-14T15:11:44.963Z,0.87
2018-09-14T15:14:14.339Z,1.23
2018-09-14T15:16:43.040Z,1.00
2018-09-14T15:19:11.787Z,0.90
2018-09-14T15:21:41.387Z,1.13
2018-09-14T15:24:10.255Z,1.10
2018-09-14T15:26:39.178Z,1.07
2018-09-14T15:29:08.490Z,1.40
2018-09-14T15:31:37.512Z,0.90
2018-09-14T15:34:06.288Z,1.23
2018-09-14T15:36:35.940Z,1.00
2018-09-14T15:39:08.775Z,1.00
2018-09-14T15:41:37.616Z,1.00
2018-09-14T15:44:06.363Z,1.73
2018-09-14T15:46:35.090Z,1.10
2018-09-14T15:49:03.940Z,1.10
2018-09-14T15:51:33.011Z,1.10
2018-09-14T15:54:02.699Z,1.10
2018-09-14T15:56:31.507Z,1.23
2018-09-14T15:59:00.582Z,1.17
2018-09-14T16:01:31.044Z,1.10
2018-09-14T16:04:00.063Z,1.30
2018-09-14T16:06:28.787Z,2.17
2018-09-14T16:08:57.496Z,1.60
2018-09-14T16:11:26.195Z,1.20
2018-09-14T16:13:54.964Z,1.20
2018-09-14T16:16:23.755Z,1.30
2018-09-14T16:18:53.183Z,0.90
2018-09-14T16:21:22.383Z,1.30
2018-09-14T16:23:51.507Z,0.90
2018-09-14T16:26:20.658Z,0.87
2018-09-14T16:28:49.687Z,0.87
2018-09-14T16:31:18.795Z,1.13
2018-09-14T16:33:47.678Z,1.10
2018-09-14T16:36:17.182Z,1.30
2018-09-14T16:38:45.983Z,0.70
2018-09-14T16:41:15.179Z,0.80
2018-09-14T16:43:44.191Z,0.87
2018-09-14T16:46:12.891Z,0.90
2018-09-14T16:48:41.595Z,1.30
2018-09-14T16:51:10.391Z,1.20
2018-09-14T16:53:39.203Z,1.37
2018-09-14T16:56:07.915Z,1.17
2018-09-14T16:58:36.788Z,1.30
2018-09-14T17:01:06.006Z,1.10
2018-09-14T17:03:35.075Z,0.87
2018-09-14T17:06:04.171Z,0.90
2018-09-14T17:08:33.230Z,1.17
2018-09-14T17:11:02.318Z,0.83
2018-09-14T17:13:32.092Z,2.23
2018-09-14T17:16:01.191Z,1.60
2018-09-14T17:18:31.290Z,1.07
2018-09-14T17:21:00.406Z,1.10
2018-09-14T17:23:29.178Z,0.90
2018-09-14T17:25:58.070Z,1.10
2018-09-14T17:28:27.211Z,0.90
2018-09-14T17:30:55.910Z,1.80
2018-09-14T17:33:24.631Z,1.10
2018-09-14T17:35:54.112Z,1.27
2018-09-14T17:38:22.913Z,2.00
2018-09-14T17:40:51.814Z,1.30
2018-09-14T17:43:20.831Z,1.30
2018-09-14T17:45:50.111Z,1.53
2018-09-14T17:48:19.055Z,1.43
2018-09-14T17:50:48.479Z,1.03
2018-09-14T17:53:17.342Z,1.77
2018-09-14T17:55:46.067Z,1.90
2018-09-14T17:58:14.756Z,2.10
2018-09-14T18:00:44.693Z,2.43
2018-09-14T18:03:13.905Z,1.73
2018-09-14T18:05:43.255Z,1.80
2018-09-14T18:08:12.103Z,2.00
2018-09-14T18:10:40.796Z,1.47
2018-09-14T18:13:09.778Z,2.63
2018-09-14T18:15:38.832Z,1.07
2018-09-14T18:18:07.936Z,1.07
2018-09-14T18:20:36.655Z,1.27
2018-09-14T18:23:05.674Z,1.70
2018-09-14T18:25:34.710Z,1.50
2018-09-14T18:28:04.591Z,2.10
2018-09-14T18:30:33.703Z,1.67
2018-09-14T18:33:02.419Z,1.83
2018-09-14T18:35:31.426Z,1.87
2018-09-14T18:38:01.105Z,2.40
2018-09-14T18:40:30.155Z,2.20
2018-09-14T18:42:59.578Z,2.30
2018-09-14T18:45:28.275Z,2.07
2018-09-14T18:47:57.422Z,1.57
2018-09-14T18:50:26.578Z,3.00
2018-09-14T18:52:55.828Z,1.50
2018-09-14T18:55:25.786Z,3.30
2018-09-14T18:57:54.516Z,3.03
2018-09-14T19:00:24.274Z,1.70
2018-09-14T19:02:53.660Z,2.43
2018-09-14T19:05:22.899Z,3.60
2018-09-14T19:07:51.923Z,2.13
2018-09-14T19:10:20.628Z,2.27
2018-09-14T19:12:49.539Z,3.63
2018-09-14T19:15:18.935Z,4.57
2018-09-14T19:17:47.941Z,2.70
2018-09-14T19:20:16.655Z,1.57
2018-09-14T19:22:45.771Z,2.03
2018-09-14T19:25:14.778Z,6.87
2018-09-14T19:27:43.983Z,3.87
2018-09-14T19:30:13.179Z,6.77
2018-09-14T19:32:41.859Z,5.40
2018-09-14T19:35:10.654Z,3.10
2018-09-14T19:37:39.350Z,2.10
2018-09-14T19:40:08.067Z,1.80
2018-09-14T19:42:37.044Z,2.07
2018-09-14T19:45:05.776Z,2.30
2018-09-14T19:47:35.313Z,1.47
2018-09-14T19:50:04.892Z,1.40
2018-09-14T19:52:34.095Z,1.50
2018-09-14T19:55:03.675Z,1.60
2018-09-14T19:57:33.207Z,2.07
2018-09-14T20:00:02.596Z,1.80
2018-09-14T20:02:31.704Z,1.43
2018-09-14T20:05:01.150Z,1.57
2018-09-14T20:07:29.839Z,1.67
2018-09-14T20:09:58.873Z,1.60
2018-09-14T20:12:28.388Z,1.50
2018-09-14T20:14:57.499Z,1.83
2018-09-14T20:17:26.685Z,1.57
2018-09-14T20:19:55.516Z,1.60
2018-09-14T20:22:24.627Z,1.20
2018-09-14T20:24:54.167Z,1.70
2018-09-14T20:27:23.362Z,1.70
2018-09-14T20:29:52.187Z,1.80
2018-09-14T20:32:21.744Z,1.80
2018-09-14T20:34:51.824Z,1.97
2018-09-14T20:37:21.049Z,1.57
2018-09-14T20:39:50.280Z,1.50
2018-09-14T20:42:19.282Z,1.93
2018-09-14T20:44:48.107Z,1.33
2018-09-14T20:47:17.072Z,1.57
2018-09-14T20:49:46.251Z,1.40
2018-09-14T20:52:15.417Z,1.60
2018-09-14T20:54:44.770Z,1.70
